Terminal Aerodrome Forecast
Issued by NWS Atlanta, GA

Home | Current Version | Previous Version | Text Only | Print | Product List | Glossary On
Versions: 1 2 3 4 5 6 7 8 9 10 11 12 13 14 15 16 17 18 19 20 21 22 23 24 25 26 27 28 29 30 31 32 33 34 35
000
FTAK31 PAJN 221700
TAFAHN
TAF
PAHN 221736Z 2218/2318 09010G18KT P6SM -SHRA BKN050 OVC080
     FM230300 09007KT P6SM VCSH BKN050 OVC080
     FM231000 VRB05KT P6SM SCT050 BKN080
     FM231500 30008KT P6SM SCT080
      AMD LTD TO CLD VIS AND WIND=

USA.gov is the U.S. government's official web portal to all federal, state and local government web resources and services.